sensor_id;sensor_type;location;lat;lon;timestamp;P1;durP1;ratioP1;P2;durP2;ratioP2
14007;SDS011;61651;45.508;12.232;2022-11-14T00:01:06;13.33;;;11.33;;
14007;SDS011;61651;45.508;12.232;2022-11-14T00:04:09;12.53;;;9.97;;
14007;SDS011;61651;45.508;12.232;2022-11-14T00:07:11;13.10;;;11.40;;
14007;SDS011;61651;45.508;12.232;2022-11-14T00:10:14;11.37;;;10.20;;
14007;SDS011;61651;45.508;12.232;2022-11-14T00:13:18;12.23;;;10.67;;
14007;SDS011;61651;45.508;12.232;2022-11-14T00:16:21;11.87;;;10.43;;
14007;SDS011;61651;45.508;12.232;2022-11-14T00:19:23;13.10;;;10.10;;
14007;SDS011;61651;45.508;12.232;2022-11-14T00:22:25;12.17;;;10.13;;
14007;SDS011;61651;45.508;12.232;2022-11-14T00:25:27;11.27;;;9.57;;
14007;SDS011;61651;45.508;12.232;2022-11-14T00:28:30;13.87;;;10.20;;
14007;SDS011;61651;45.508;12.232;2022-11-14T00:31:32;12.80;;;10.40;;
14007;SDS011;61651;45.508;12.232;2022-11-14T00:34:34;10.60;;;9.50;;
14007;SDS011;61651;45.508;12.232;2022-11-14T00:37:36;13.23;;;10.23;;
14007;SDS011;61651;45.508;12.232;2022-11-14T00:40:38;11.07;;;9.83;;
14007;SDS011;61651;45.508;12.232;2022-11-14T00:43:41;13.27;;;10.93;;
14007;SDS011;61651;45.508;12.232;2022-11-14T00:46:43;10.73;;;9.47;;
14007;SDS011;61651;45.508;12.232;2022-11-14T00:49:45;11.93;;;9.33;;
14007;SDS011;61651;45.508;12.232;2022-11-14T00:52:47;10.67;;;9.53;;
14007;SDS011;61651;45.508;12.232;2022-11-14T00:55:49;13.47;;;9.97;;
14007;SDS011;61651;45.508;12.232;2022-11-14T00:58:53;12.47;;;9.90;;
14007;SDS011;61651;45.508;12.232;2022-11-14T01:01:55;10.90;;;9.80;;
14007;SDS011;61651;45.508;12.232;2022-11-14T01:04:57;12.77;;;10.63;;
14007;SDS011;61651;45.508;12.232;2022-11-14T01:07:59;12.40;;;10.20;;
14007;SDS011;61651;45.508;12.232;2022-11-14T01:11:07;14.10;;;10.40;;
14007;SDS011;61651;45.508;12.232;2022-11-14T01:14:11;13.73;;;10.30;;
14007;SDS011;61651;45.508;12.232;2022-11-14T01:17:13;13.50;;;10.60;;
14007;SDS011;61651;45.508;12.232;2022-11-14T01:20:15;14.50;;;10.27;;
14007;SDS011;61651;45.508;12.232;2022-11-14T01:23:17;12.93;;;10.47;;
14007;SDS011;61651;45.508;12.232;2022-11-14T01:26:20;12.13;;;10.57;;
14007;SDS011;61651;45.508;12.232;2022-11-14T01:29:23;14.80;;;10.90;;
14007;SDS011;61651;45.508;12.232;2022-11-14T01:32:25;10.77;;;9.67;;
14007;SDS011;61651;45.508;12.232;2022-11-14T01:35:28;10.97;;;9.73;;
14007;SDS011;61651;45.508;12.232;2022-11-14T01:38:30;11.33;;;9.50;;
14007;SDS011;61651;45.508;12.232;2022-11-14T01:41:32;11.33;;;9.87;;
14007;SDS011;61651;45.508;12.232;2022-11-14T01:44:40;10.37;;;9.10;;
14007;SDS011;61651;45.508;12.232;2022-11-14T01:47:45;13.13;;;9.53;;
14007;SDS011;61651;45.508;12.232;2022-11-14T01:50:49;11.67;;;9.83;;
14007;SDS011;61651;45.508;12.232;2022-11-14T01:53:56;13.57;;;10.13;;
14007;SDS011;61651;45.508;12.232;2022-11-14T01:57:01;11.03;;;9.30;;
14007;SDS011;61651;45.508;12.232;2022-11-14T02:00:07;10.27;;;9.27;;
14007;SDS011;61651;45.508;12.232;2022-11-14T02:03:12;9.73;;;8.77;;
14007;SDS011;61651;45.508;12.232;2022-11-14T02:06:15;11.63;;;9.33;;
14007;SDS011;61651;45.508;12.232;2022-11-14T02:09:20;10.40;;;8.60;;
14007;SDS011;61651;45.508;12.232;2022-11-14T02:12:23;9.60;;;8.57;;
14007;SDS011;61651;45.508;12.232;2022-11-14T02:15:26;11.63;;;8.63;;
14007;SDS011;61651;45.508;12.232;2022-11-14T02:18:28;11.13;;;8.70;;
14007;SDS011;61651;45.508;12.232;2022-11-14T02:21:32;9.13;;;8.23;;
14007;SDS011;61651;45.508;12.232;2022-11-14T02:24:35;9.50;;;8.50;;
14007;SDS011;61651;45.508;12.232;2022-11-14T02:27:37;9.43;;;8.43;;
14007;SDS011;61651;45.508;12.232;2022-11-14T02:30:40;9.27;;;8.03;;
14007;SDS011;61651;45.508;12.232;2022-11-14T02:33:42;9.20;;;7.70;;
14007;SDS011;61651;45.508;12.232;2022-11-14T02:36:46;8.87;;;7.97;;
14007;SDS011;61651;45.508;12.232;2022-11-14T02:39:48;10.03;;;8.17;;
14007;SDS011;61651;45.508;12.232;2022-11-14T02:42:49;9.43;;;7.33;;
14007;SDS011;61651;45.508;12.232;2022-11-14T02:45:51;8.40;;;7.27;;
14007;SDS011;61651;45.508;12.232;2022-11-14T02:48:54;8.90;;;8.00;;
14007;SDS011;61651;45.508;12.232;2022-11-14T02:51:57;9.67;;;7.93;;
14007;SDS011;61651;45.508;12.232;2022-11-14T02:54:59;9.80;;;7.70;;
14007;SDS011;61651;45.508;12.232;2022-11-14T02:58:01;9.43;;;7.80;;
14007;SDS011;61651;45.508;12.232;2022-11-14T03:01:04;10.43;;;7.97;;
14007;SDS011;61651;45.508;12.232;2022-11-14T03:04:06;8.33;;;7.47;;
14007;SDS011;61651;45.508;12.232;2022-11-14T03:07:10;7.33;;;6.63;;
14007;SDS011;61651;45.508;12.232;2022-11-14T03:10:12;9.23;;;7.57;;
14007;SDS011;61651;45.508;12.232;2022-11-14T03:13:14;7.47;;;6.73;;
14007;SDS011;61651;45.508;12.232;2022-11-14T03:16:16;7.70;;;6.50;;
14007;SDS011;61651;45.508;12.232;2022-11-14T03:19:18;8.13;;;7.33;;
14007;SDS011;61651;45.508;12.232;2022-11-14T03:22:21;8.47;;;7.67;;
14007;SDS011;61651;45.508;12.232;2022-11-14T03:25:23;7.93;;;6.57;;
14007;SDS011;61651;45.508;12.232;2022-11-14T03:28:25;7.77;;;6.70;;
14007;SDS011;61651;45.508;12.232;2022-11-14T03:31:27;7.43;;;6.67;;
14007;SDS011;61651;45.508;12.232;2022-11-14T03:34:29;9.20;;;6.77;;
14007;SDS011;61651;45.508;12.232;2022-11-14T03:37:33;7.93;;;7.13;;
14007;SDS011;61651;45.508;12.232;2022-11-14T03:40:37;9.13;;;7.63;;
14007;SDS011;61651;45.508;12.232;2022-11-14T03:43:39;7.10;;;6.40;;
14007;SDS011;61651;45.508;12.232;2022-11-14T03:46:41;9.90;;;7.10;;
14007;SDS011;61651;45.508;12.232;2022-11-14T03:49:43;7.88;;;7.07;;
14007;SDS011;61651;45.508;12.232;2022-11-14T03:52:48;9.07;;;7.27;;
14007;SDS011;61651;45.508;12.232;2022-11-14T03:55:50;8.77;;;6.87;;
14007;SDS011;61651;45.508;12.232;2022-11-14T03:58:53;8.50;;;7.33;;
14007;SDS011;61651;45.508;12.232;2022-11-14T04:01:55;7.63;;;6.77;;
14007;SDS011;61651;45.508;12.232;2022-11-14T04:04:56;8.30;;;6.97;;
14007;SDS011;61651;45.508;12.232;2022-11-14T04:08:00;7.63;;;6.57;;
14007;SDS011;61651;45.508;12.232;2022-11-14T04:11:05;8.87;;;6.90;;
14007;SDS011;61651;45.508;12.232;2022-11-14T04:14:08;8.30;;;7.37;;
14007;SDS011;61651;45.508;12.232;2022-11-14T04:17:10;7.77;;;7.07;;
14007;SDS011;61651;45.508;12.232;2022-11-14T04:20:12;8.50;;;7.27;;
14007;SDS011;61651;45.508;12.232;2022-11-14T04:23:16;8.67;;;6.90;;
14007;SDS011;61651;45.508;12.232;2022-11-14T04:26:18;8.63;;;6.80;;
14007;SDS011;61651;45.508;12.232;2022-11-14T04:29:20;8.30;;;6.70;;
14007;SDS011;61651;45.508;12.232;2022-11-14T04:32:22;7.80;;;7.03;;
14007;SDS011;61651;45.508;12.232;2022-11-14T04:35:24;6.43;;;5.83;;
14007;SDS011;61651;45.508;12.232;2022-11-14T04:38:27;6.90;;;6.20;;
14007;SDS011;61651;45.508;12.232;2022-11-14T04:41:29;7.73;;;6.77;;
14007;SDS011;61651;45.508;12.232;2022-11-14T04:44:31;6.97;;;6.27;;
14007;SDS011;61651;45.508;12.232;2022-11-14T04:47:33;8.10;;;6.83;;
14007;SDS011;61651;45.508;12.232;2022-11-14T04:50:35;6.83;;;6.20;;
14007;SDS011;61651;45.508;12.232;2022-11-14T04:53:39;7.77;;;6.50;;
14007;SDS011;61651;45.508;12.232;2022-11-14T04:56:41;7.47;;;6.53;;
14007;SDS011;61651;45.508;12.232;2022-11-14T04:59:43;7.53;;;6.57;;
14007;SDS011;61651;45.508;12.232;2022-11-14T05:02:45;8.27;;;6.40;;
14007;SDS011;61651;45.508;12.232;2022-11-14T05:05:47;8.63;;;6.57;;
14007;SDS011;61651;45.508;12.232;2022-11-14T05:08:50;8.73;;;6.30;;
14007;SDS011;61651;45.508;12.232;2022-11-14T05:11:52;7.20;;;6.00;;
14007;SDS011;61651;45.508;12.232;2022-11-14T05:14:54;7.60;;;5.77;;
14007;SDS011;61651;45.508;12.232;2022-11-14T05:17:56;6.73;;;6.00;;
14007;SDS011;61651;45.508;12.232;2022-11-14T05:20:58;7.27;;;6.00;;
14007;SDS011;61651;45.508;12.232;2022-11-14T05:24:02;6.67;;;5.80;;
14007;SDS011;61651;45.508;12.232;2022-11-14T05:27:04;6.37;;;5.77;;
14007;SDS011;61651;45.508;12.232;2022-11-14T05:30:07;7.40;;;6.10;;
14007;SDS011;61651;45.508;12.232;2022-11-14T05:33:10;7.03;;;5.73;;
14007;SDS011;61651;45.508;12.232;2022-11-14T05:36:12;5.93;;;5.33;;
14007;SDS011;61651;45.508;12.232;2022-11-14T05:39:17;6.13;;;5.53;;
14007;SDS011;61651;45.508;12.232;2022-11-14T05:42:20;6.40;;;5.80;;
14007;SDS011;61651;45.508;12.232;2022-11-14T05:45:22;6.57;;;5.20;;
14007;SDS011;61651;45.508;12.232;2022-11-14T05:48:24;6.07;;;5.33;;
14007;SDS011;61651;45.508;12.232;2022-11-14T05:51:26;6.43;;;5.10;;
14007;SDS011;61651;45.508;12.232;2022-11-14T05:54:29;5.67;;;5.17;;
14007;SDS011;61651;45.508;12.232;2022-11-14T05:57:31;6.07;;;5.07;;
14007;SDS011;61651;45.508;12.232;2022-11-14T06:00:34;6.87;;;4.70;;
14007;SDS011;61651;45.508;12.232;2022-11-14T06:03:37;5.73;;;5.23;;
14007;SDS011;61651;45.508;12.232;2022-11-14T06:06:40;6.47;;;5.50;;
14007;SDS011;61651;45.508;12.232;2022-11-14T06:09:44;6.10;;;4.83;;
14007;SDS011;61651;45.508;12.232;2022-11-14T06:12:46;5.03;;;4.57;;
14007;SDS011;61651;45.508;12.232;2022-11-14T06:15:57;5.47;;;4.93;;
14007;SDS011;61651;45.508;12.232;2022-11-14T06:19:00;5.43;;;4.93;;
14007;SDS011;61651;45.508;12.232;2022-11-14T06:22:02;7.77;;;4.90;;
14007;SDS011;61651;45.508;12.232;2022-11-14T06:25:06;4.83;;;4.33;;
14007;SDS011;61651;45.508;12.232;2022-11-14T06:28:09;5.60;;;4.70;;
14007;SDS011;61651;45.508;12.232;2022-11-14T06:31:11;5.47;;;4.93;;
14007;SDS011;61651;45.508;12.232;2022-11-14T06:34:13;5.43;;;4.67;;
14007;SDS011;61651;45.508;12.232;2022-11-14T06:37:15;4.33;;;3.77;;
14007;SDS011;61651;45.508;12.232;2022-11-14T06:40:18;5.53;;;4.60;;
14007;SDS011;61651;45.508;12.232;2022-11-14T06:43:20;5.30;;;4.80;;
14007;SDS011;61651;45.508;12.232;2022-11-14T06:46:22;5.17;;;4.67;;
14007;SDS011;61651;45.508;12.232;2022-11-14T06:49:24;5.33;;;4.43;;
14007;SDS011;61651;45.508;12.232;2022-11-14T06:52:26;5.28;;;4.75;;
14007;SDS011;61651;45.508;12.232;2022-11-14T06:55:30;4.43;;;4.03;;
14007;SDS011;61651;45.508;12.232;2022-11-14T06:58:33;5.78;;;4.97;;
14007;SDS011;61651;45.508;12.232;2022-11-14T07:01:38;4.50;;;4.03;;
14007;SDS011;61651;45.508;12.232;2022-11-14T07:04:40;5.82;;;4.15;;
14007;SDS011;61651;45.508;12.232;2022-11-14T07:07:42;6.30;;;4.00;;
14007;SDS011;61651;45.508;12.232;2022-11-14T07:10:45;4.43;;;3.90;;
14007;SDS011;61651;45.508;12.232;2022-11-14T07:13:47;7.63;;;4.53;;
14007;SDS011;61651;45.508;12.232;2022-11-14T07:16:50;6.27;;;4.93;;
14007;SDS011;61651;45.508;12.232;2022-11-14T07:19:52;6.23;;;4.50;;
14007;SDS011;61651;45.508;12.232;2022-11-14T07:22:54;5.37;;;4.53;;
14007;SDS011;61651;45.508;12.232;2022-11-14T07:26:00;4.53;;;4.13;;
14007;SDS011;61651;45.508;12.232;2022-11-14T07:29:03;5.20;;;4.70;;
14007;SDS011;61651;45.508;12.232;2022-11-14T07:32:05;4.20;;;3.78;;
14007;SDS011;61651;45.508;12.232;2022-11-14T07:35:07;4.32;;;3.88;;
14007;SDS011;61651;45.508;12.232;2022-11-14T07:38:09;4.30;;;3.90;;
14007;SDS011;61651;45.508;12.232;2022-11-14T07:41:15;4.38;;;3.97;;
14007;SDS011;61651;45.508;12.232;2022-11-14T07:44:25;4.30;;;3.90;;
14007;SDS011;61651;45.508;12.232;2022-11-14T07:47:27;4.40;;;3.90;;
14007;SDS011;61651;45.508;12.232;2022-11-14T07:50:29;3.90;;;3.50;;
14007;SDS011;61651;45.508;12.232;2022-11-14T07:53:32;4.53;;;4.13;;
14007;SDS011;61651;45.508;12.232;2022-11-14T07:56:36;3.85;;;3.45;;
14007;SDS011;61651;45.508;12.232;2022-11-14T07:59:37;3.72;;;3.03;;
14007;SDS011;61651;45.508;12.232;2022-11-14T08:02:39;4.05;;;3.55;;
14007;SDS011;61651;45.508;12.232;2022-11-14T08:05:41;4.72;;;3.90;;
14007;SDS011;61651;45.508;12.232;2022-11-14T08:08:43;4.40;;;3.80;;
14007;SDS011;61651;45.508;12.232;2022-11-14T08:11:47;5.25;;;3.65;;
14007;SDS011;61651;45.508;12.232;2022-11-14T08:14:49;4.13;;;3.72;;
14007;SDS011;61651;45.508;12.232;2022-11-14T08:17:51;3.75;;;3.17;;
14007;SDS011;61651;45.508;12.232;2022-11-14T08:20:53;3.80;;;3.47;;
14007;SDS011;61651;45.508;12.232;2022-11-14T08:23:56;4.43;;;3.70;;
14007;SDS011;61651;45.508;12.232;2022-11-14T08:27:00;3.72;;;3.30;;
14007;SDS011;61651;45.508;12.232;2022-11-14T08:30:02;5.03;;;3.83;;
14007;SDS011;61651;45.508;12.232;2022-11-14T08:33:05;4.28;;;3.85;;
14007;SDS011;61651;45.508;12.232;2022-11-14T08:36:08;4.85;;;4.00;;
14007;SDS011;61651;45.508;12.232;2022-11-14T08:39:11;4.25;;;3.53;;
14007;SDS011;61651;45.508;12.232;2022-11-14T08:42:14;4.47;;;3.75;;
14007;SDS011;61651;45.508;12.232;2022-11-14T08:45:16;3.97;;;3.47;;
14007;SDS011;61651;45.508;12.232;2022-11-14T08:48:18;3.58;;;3.28;;
14007;SDS011;61651;45.508;12.232;2022-11-14T08:51:20;9.32;;;4.40;;
14007;SDS011;61651;45.508;12.232;2022-11-14T08:54:23;4.55;;;3.85;;
14007;SDS011;61651;45.508;12.232;2022-11-14T08:57:26;4.35;;;3.95;;
14007;SDS011;61651;45.508;12.232;2022-11-14T09:00:28;4.73;;;3.80;;
14007;SDS011;61651;45.508;12.232;2022-11-14T09:03:30;4.10;;;3.70;;
14007;SDS011;61651;45.508;12.232;2022-11-14T09:06:33;4.15;;;3.67;;
14007;SDS011;61651;45.508;12.232;2022-11-14T09:09:35;4.55;;;3.92;;
14007;SDS011;61651;45.508;12.232;2022-11-14T09:12:38;4.75;;;3.67;;
14007;SDS011;61651;45.508;12.232;2022-11-14T09:15:40;3.63;;;3.20;;
14007;SDS011;61651;45.508;12.232;2022-11-14T09:18:43;4.15;;;3.42;;
14007;SDS011;61651;45.508;12.232;2022-11-14T09:21:45;4.97;;;3.60;;
14007;SDS011;61651;45.508;12.232;2022-11-14T09:24:47;4.65;;;3.83;;
14007;SDS011;61651;45.508;12.232;2022-11-14T09:27:52;3.38;;;3.08;;
14007;SDS011;61651;45.508;12.232;2022-11-14T09:30:58;4.00;;;3.60;;
14007;SDS011;61651;45.508;12.232;2022-11-14T09:34:01;3.90;;;3.50;;
14007;SDS011;61651;45.508;12.232;2022-11-14T09:37:03;3.95;;;3.60;;
14007;SDS011;61651;45.508;12.232;2022-11-14T09:40:05;3.83;;;3.20;;
14007;SDS011;61651;45.508;12.232;2022-11-14T09:43:16;4.40;;;3.97;;
14007;SDS011;61651;45.508;12.232;2022-11-14T09:46:36;3.95;;;3.65;;
14007;SDS011;61651;45.508;12.232;2022-11-14T09:49:44;4.60;;;4.10;;
14007;SDS011;61651;45.508;12.232;2022-11-14T09:52:48;4.57;;;3.67;;
14007;SDS011;61651;45.508;12.232;2022-11-14T09:55:55;4.03;;;3.63;;
14007;SDS011;61651;45.508;12.232;2022-11-14T09:59:00;4.40;;;3.67;;
14007;SDS011;61651;45.508;12.232;2022-11-14T10:02:04;4.50;;;3.88;;
14007;SDS011;61651;45.508;12.232;2022-11-14T10:05:19;3.80;;;3.50;;
14007;SDS011;61651;45.508;12.232;2022-11-14T10:08:33;8.20;;;3.90;;
14007;SDS011;61651;45.508;12.232;2022-11-14T10:11:58;4.47;;;4.00;;
14007;SDS011;61651;45.508;12.232;2022-11-14T10:15:16;3.90;;;3.45;;
14007;SDS011;61651;45.508;12.232;2022-11-14T10:18:28;5.20;;;4.13;;
14007;SDS011;61651;45.508;12.232;2022-11-14T10:25:20;12.52;;;9.15;;
14007;SDS011;61651;45.508;12.232;2022-11-14T10:28:30;4.43;;;3.97;;
14007;SDS011;61651;45.508;12.232;2022-11-14T10:31:43;3.72;;;3.33;;
14007;SDS011;61651;45.508;12.232;2022-11-14T10:34:53;3.20;;;2.80;;
14007;SDS011;61651;45.508;12.232;2022-11-14T10:38:01;4.15;;;3.20;;
14007;SDS011;61651;45.508;12.232;2022-11-14T10:41:09;3.53;;;3.15;;
14007;SDS011;61651;45.508;12.232;2022-11-14T10:44:12;3.10;;;2.80;;
14007;SDS011;61651;45.508;12.232;2022-11-14T10:47:19;4.95;;;3.20;;
14007;SDS011;61651;45.508;12.232;2022-11-14T10:50:24;3.55;;;3.25;;
14007;SDS011;61651;45.508;12.232;2022-11-14T10:53:37;5.50;;;3.33;;
14007;SDS011;61651;45.508;12.232;2022-11-14T10:56:45;3.88;;;3.20;;
14007;SDS011;61651;45.508;12.232;2022-11-14T10:59:48;3.70;;;3.25;;
14007;SDS011;61651;45.508;12.232;2022-11-14T11:02:57;6.93;;;4.35;;
14007;SDS011;61651;45.508;12.232;2022-11-14T11:05:59;4.18;;;3.78;;
14007;SDS011;61651;45.508;12.232;2022-11-14T11:09:06;6.18;;;4.50;;
14007;SDS011;61651;45.508;12.232;2022-11-14T11:12:37;3.28;;;3.08;;
14007;SDS011;61651;45.508;12.232;2022-11-14T11:15:44;10.48;;;5.22;;
14007;SDS011;61651;45.508;12.232;2022-11-14T11:19:02;8.57;;;4.70;;
14007;SDS011;61651;45.508;12.232;2022-11-14T11:22:26;5.20;;;3.95;;
14007;SDS011;61651;45.508;12.232;2022-11-14T11:25:36;6.22;;;4.28;;
14007;SDS011;61651;45.508;12.232;2022-11-14T11:28:39;3.95;;;3.55;;
14007;SDS011;61651;45.508;12.232;2022-11-14T11:31:48;5.32;;;3.05;;
14007;SDS011;61651;45.508;12.232;2022-11-14T11:34:52;7.13;;;3.95;;
14007;SDS011;61651;45.508;12.232;2022-11-14T11:37:55;3.30;;;3.00;;
14007;SDS011;61651;45.508;12.232;2022-11-14T11:41:06;4.70;;;3.08;;
14007;SDS011;61651;45.508;12.232;2022-11-14T11:44:18;3.25;;;2.95;;
14007;SDS011;61651;45.508;12.232;2022-11-14T11:47:22;3.60;;;3.15;;
14007;SDS011;61651;45.508;12.232;2022-11-14T11:50:27;3.25;;;2.95;;
14007;SDS011;61651;45.508;12.232;2022-11-14T11:53:30;3.33;;;2.78;;
14007;SDS011;61651;45.508;12.232;2022-11-14T11:56:34;3.10;;;2.80;;
14007;SDS011;61651;45.508;12.232;2022-11-14T11:59:39;3.95;;;2.97;;
14007;SDS011;61651;45.508;12.232;2022-11-14T12:02:46;3.35;;;3.08;;
14007;SDS011;61651;45.508;12.232;2022-11-14T12:05:51;3.15;;;2.60;;
14007;SDS011;61651;45.508;12.232;2022-11-14T12:09:05;3.15;;;2.85;;
14007;SDS011;61651;45.508;12.232;2022-11-14T12:12:16;4.03;;;3.65;;
14007;SDS011;61651;45.508;12.232;2022-11-14T12:15:27;3.42;;;3.13;;
14007;SDS011;61651;45.508;12.232;2022-11-14T12:18:45;11.73;;;8.65;;
14007;SDS011;61651;45.508;12.232;2022-11-14T12:22:30;4.97;;;4.47;;
14007;SDS011;61651;45.508;12.232;2022-11-14T12:26:04;5.95;;;4.00;;
14007;SDS011;61651;45.508;12.232;2022-11-14T12:29:18;3.25;;;3.00;;
14007;SDS011;61651;45.508;12.232;2022-11-14T12:32:37;5.03;;;3.63;;
14007;SDS011;61651;45.508;12.232;2022-11-14T12:35:46;3.25;;;2.95;;
14007;SDS011;61651;45.508;12.232;2022-11-14T12:38:53;3.30;;;3.00;;
14007;SDS011;61651;45.508;12.232;2022-11-14T12:41:59;3.40;;;3.10;;
14007;SDS011;61651;45.508;12.232;2022-11-14T12:45:02;4.15;;;3.70;;
14007;SDS011;61651;45.508;12.232;2022-11-14T12:48:13;4.60;;;3.47;;
14007;SDS011;61651;45.508;12.232;2022-11-14T12:54:50;3.70;;;2.95;;
14007;SDS011;61651;45.508;12.232;2022-11-14T12:57:54;3.00;;;2.70;;
14007;SDS011;61651;45.508;12.232;2022-11-14T13:01:09;4.10;;;3.22;;
14007;SDS011;61651;45.508;12.232;2022-11-14T13:04:42;2.90;;;2.60;;
14007;SDS011;61651;45.508;12.232;2022-11-14T13:07:58;3.20;;;2.50;;
14007;SDS011;61651;45.508;12.232;2022-11-14T13:15:16;3.30;;;2.95;;
14007;SDS011;61651;45.508;12.232;2022-11-14T13:18:49;3.90;;;2.92;;
14007;SDS011;61651;45.508;12.232;2022-11-14T13:25:39;3.33;;;2.90;;
14007;SDS011;61651;45.508;12.232;2022-11-14T13:28:46;3.35;;;3.05;;
14007;SDS011;61651;45.508;12.232;2022-11-14T13:31:49;3.00;;;2.80;;
14007;SDS011;61651;45.508;12.232;2022-11-14T13:34:52;3.20;;;2.90;;
14007;SDS011;61651;45.508;12.232;2022-11-14T13:38:16;3.15;;;2.75;;
14007;SDS011;61651;45.508;12.232;2022-11-14T13:41:51;3.50;;;3.20;;
14007;SDS011;61651;45.508;12.232;2022-11-14T13:48:54;3.17;;;2.88;;
14007;SDS011;61651;45.508;12.232;2022-11-14T13:52:07;3.40;;;3.10;;
14007;SDS011;61651;45.508;12.232;2022-11-14T13:55:21;3.45;;;3.15;;
14007;SDS011;61651;45.508;12.232;2022-11-14T13:58:33;3.42;;;3.13;;
14007;SDS011;61651;45.508;12.232;2022-11-14T14:02:20;4.22;;;2.58;;
14007;SDS011;61651;45.508;12.232;2022-11-14T14:05:40;4.05;;;3.22;;
14007;SDS011;61651;45.508;12.232;2022-11-14T14:12:26;3.03;;;2.50;;
14007;SDS011;61651;45.508;12.232;2022-11-14T14:15:42;2.97;;;2.35;;
14007;SDS011;61651;45.508;12.232;2022-11-14T14:18:53;3.20;;;2.90;;
14007;SDS011;61651;45.508;12.232;2022-11-14T14:22:03;4.35;;;3.22;;
14007;SDS011;61651;45.508;12.232;2022-11-14T14:25:13;3.30;;;2.95;;
14007;SDS011;61651;45.508;12.232;2022-11-14T14:28:21;3.95;;;3.28;;
14007;SDS011;61651;45.508;12.232;2022-11-14T14:31:34;3.78;;;3.47;;
14007;SDS011;61651;45.508;12.232;2022-11-14T14:34:39;3.20;;;2.95;;
14007;SDS011;61651;45.508;12.232;2022-11-14T14:37:48;3.30;;;3.00;;
14007;SDS011;61651;45.508;12.232;2022-11-14T14:40:51;5.47;;;3.50;;
14007;SDS011;61651;45.508;12.232;2022-11-14T14:43:55;3.80;;;3.40;;
14007;SDS011;61651;45.508;12.232;2022-11-14T14:46:57;4.70;;;4.28;;
14007;SDS011;61651;45.508;12.232;2022-11-14T14:50:01;4.70;;;4.22;;
14007;SDS011;61651;45.508;12.232;2022-11-14T14:53:05;4.85;;;3.80;;
14007;SDS011;61651;45.508;12.232;2022-11-14T14:56:17;5.40;;;3.58;;
14007;SDS011;61651;45.508;12.232;2022-11-14T14:59:21;6.68;;;4.03;;
14007;SDS011;61651;45.508;12.232;2022-11-14T15:02:24;4.18;;;3.83;;
14007;SDS011;61651;45.508;12.232;2022-11-14T15:05:28;3.50;;;3.20;;
14007;SDS011;61651;45.508;12.232;2022-11-14T15:08:33;4.18;;;3.60;;
14007;SDS011;61651;45.508;12.232;2022-11-14T15:11:39;4.28;;;3.47;;
14007;SDS011;61651;45.508;12.232;2022-11-14T15:14:43;3.92;;;3.60;;
14007;SDS011;61651;45.508;12.232;2022-11-14T15:17:46;3.95;;;3.40;;
14007;SDS011;61651;45.508;12.232;2022-11-14T15:24:12;4.30;;;3.85;;
14007;SDS011;61651;45.508;12.232;2022-11-14T15:27:17;5.97;;;3.90;;
14007;SDS011;61651;45.508;12.232;2022-11-14T15:30:22;3.63;;;3.28;;
14007;SDS011;61651;45.508;12.232;2022-11-14T15:33:26;4.47;;;3.85;;
14007;SDS011;61651;45.508;12.232;2022-11-14T15:36:31;4.35;;;3.70;;
14007;SDS011;61651;45.508;12.232;2022-11-14T15:39:33;4.40;;;4.00;;
14007;SDS011;61651;45.508;12.232;2022-11-14T15:42:35;5.40;;;4.70;;
14007;SDS011;61651;45.508;12.232;2022-11-14T15:45:38;5.80;;;4.90;;
14007;SDS011;61651;45.508;12.232;2022-11-14T15:48:41;6.40;;;4.72;;
14007;SDS011;61651;45.508;12.232;2022-11-14T15:51:44;5.70;;;4.60;;
14007;SDS011;61651;45.508;12.232;2022-11-14T15:54:48;6.57;;;5.13;;
14007;SDS011;61651;45.508;12.232;2022-11-14T15:57:50;5.63;;;5.00;;
14007;SDS011;61651;45.508;12.232;2022-11-14T16:00:52;6.70;;;5.18;;
14007;SDS011;61651;45.508;12.232;2022-11-14T16:03:56;5.70;;;5.10;;
14007;SDS011;61651;45.508;12.232;2022-11-14T16:06:59;6.10;;;5.18;;
14007;SDS011;61651;45.508;12.232;2022-11-14T16:10:01;5.85;;;5.25;;
14007;SDS011;61651;45.508;12.232;2022-11-14T16:13:03;6.65;;;4.85;;
14007;SDS011;61651;45.508;12.232;2022-11-14T16:16:07;6.72;;;5.53;;
14007;SDS011;61651;45.508;12.232;2022-11-14T16:19:09;6.05;;;5.03;;
14007;SDS011;61651;45.508;12.232;2022-11-14T16:22:30;8.38;;;6.03;;
14007;SDS011;61651;45.508;12.232;2022-11-14T16:25:32;7.57;;;6.18;;
14007;SDS011;61651;45.508;12.232;2022-11-14T16:28:34;6.10;;;5.35;;
14007;SDS011;61651;45.508;12.232;2022-11-14T16:31:36;6.65;;;5.32;;
14007;SDS011;61651;45.508;12.232;2022-11-14T16:34:38;6.65;;;5.63;;
14007;SDS011;61651;45.508;12.232;2022-11-14T16:37:42;8.60;;;6.10;;
14007;SDS011;61651;45.508;12.232;2022-11-14T16:40:44;7.00;;;6.30;;
14007;SDS011;61651;45.508;12.232;2022-11-14T16:43:46;7.22;;;6.30;;
14007;SDS011;61651;45.508;12.232;2022-11-14T16:46:48;9.88;;;7.63;;
14007;SDS011;61651;45.508;12.232;2022-11-14T16:49:50;8.15;;;6.85;;
14007;SDS011;61651;45.508;12.232;2022-11-14T16:52:53;9.13;;;7.75;;
14007;SDS011;61651;45.508;12.232;2022-11-14T16:55:55;8.27;;;7.20;;
14007;SDS011;61651;45.508;12.232;2022-11-14T16:58:57;9.32;;;6.80;;
14007;SDS011;61651;45.508;12.232;2022-11-14T17:01:59;8.25;;;7.10;;
14007;SDS011;61651;45.508;12.232;2022-11-14T17:05:01;8.32;;;6.57;;
14007;SDS011;61651;45.508;12.232;2022-11-14T17:08:05;8.75;;;6.90;;
14007;SDS011;61651;45.508;12.232;2022-11-14T17:11:07;13.30;;;7.55;;
14007;SDS011;61651;45.508;12.232;2022-11-14T17:14:10;9.80;;;6.93;;
14007;SDS011;61651;45.508;12.232;2022-11-14T17:17:12;10.55;;;7.63;;
14007;SDS011;61651;45.508;12.232;2022-11-14T17:20:14;10.13;;;7.15;;
14007;SDS011;61651;45.508;12.232;2022-11-14T17:23:18;9.38;;;7.50;;
14007;SDS011;61651;45.508;12.232;2022-11-14T17:26:20;8.82;;;7.55;;
14007;SDS011;61651;45.508;12.232;2022-11-14T17:29:22;9.90;;;8.02;;
14007;SDS011;61651;45.508;12.232;2022-11-14T17:32:24;11.02;;;7.50;;
14007;SDS011;61651;45.508;12.232;2022-11-14T17:35:26;13.32;;;9.02;;
14007;SDS011;61651;45.508;12.232;2022-11-14T17:38:31;9.85;;;7.97;;
14007;SDS011;61651;45.508;12.232;2022-11-14T17:41:33;8.77;;;7.28;;
14007;SDS011;61651;45.508;12.232;2022-11-14T17:44:36;7.47;;;6.35;;
14007;SDS011;61651;45.508;12.232;2022-11-14T17:47:41;7.18;;;6.40;;
14007;SDS011;61651;45.508;12.232;2022-11-14T17:50:43;8.23;;;6.78;;
14007;SDS011;61651;45.508;12.232;2022-11-14T17:53:47;17.33;;;11.05;;
14007;SDS011;61651;45.508;12.232;2022-11-14T17:56:49;9.77;;;8.70;;
14007;SDS011;61651;45.508;12.232;2022-11-14T17:59:51;10.85;;;8.60;;
14007;SDS011;61651;45.508;12.232;2022-11-14T18:02:53;10.00;;;8.65;;
14007;SDS011;61651;45.508;12.232;2022-11-14T18:06:03;9.93;;;8.00;;
14007;SDS011;61651;45.508;12.232;2022-11-14T18:09:07;9.93;;;8.60;;
14007;SDS011;61651;45.508;12.232;2022-11-14T18:12:09;8.70;;;7.80;;
14007;SDS011;61651;45.508;12.232;2022-11-14T18:15:11;8.98;;;7.93;;
14007;SDS011;61651;45.508;12.232;2022-11-14T18:18:14;8.80;;;7.63;;
14007;SDS011;61651;45.508;12.232;2022-11-14T18:21:20;9.02;;;6.90;;
14007;SDS011;61651;45.508;12.232;2022-11-14T18:24:24;8.60;;;7.72;;
14007;SDS011;61651;45.508;12.232;2022-11-14T18:27:26;9.68;;;7.38;;
14007;SDS011;61651;45.508;12.232;2022-11-14T18:30:28;11.25;;;7.90;;
14007;SDS011;61651;45.508;12.232;2022-11-14T18:33:30;10.60;;;7.75;;
14007;SDS011;61651;45.508;12.232;2022-11-14T18:36:32;9.13;;;7.68;;
14007;SDS011;61651;45.508;12.232;2022-11-14T18:39:35;8.98;;;7.60;;